San Pedro, Belize

6:34 PM CST on July 29, 2016 (GMT -0600)
Mosquito Coast | | Change Station

Elev 40 ft 17.89 °N, 87.98 °W | Updated 3 minutes ago

Rain
Rain
76.8 °F
Feels Like 78 °F
N
8.0
Wind Variable Wind from SE
Gusts 21.0 mph

Today
High -- | Low -- °F
--% Chance of Precip.
Yesterday
High -- | Low -- °F
Precip. -- in
Pressure 29.93 in
Visibility 6.2 miles
Clouds Few 2100 ft
Heat Index 78 °F
Dew Point 74 °F
Humidity 90%
Rainfall 0.25 in
Snow Depth Not available.
5:29 AM 6:26 PM
Waning Crescent, 18% visible
METAR MZBZ 300000Z 09006KT 9999 FEW021 29/26 A2993 Q1013 NOSIG
Pressure 29.93 in
Visibility 6.2 miles
Clouds Few 2100 ft
Heat Index 78 °F
Dew Point 74 °F
Humidity 90%
Rainfall 0.25 in
Snow Depth Not available.
5:29 AM 6:26 PM
Waning Crescent, 18% visible
METAR MZBZ 300000Z 09006KT 9999 FEW021 29/26 A2993 Q1013 NOSIG

10-Day Weather Forecast

No radar image for this location.
×

Almanac

Astronomy

Jul. 29, 2016 Rise Set
Actual Time
Civil Twilight
Nautical Twilight
Astronomical Twilight
Moon
Length of Visible Light
Length of Day
Tomorrow will be .
, % of the Moon is Illuminated

Today's Extremes

Country Highs Country Lows

Community

WunderPhotos

Upload Photos

1,928,452 photos uploaded!

WunderBlog® & News

Nearby

Air Quality

  Air Quality AQ Index Pollutant
Not available.

Snow Depth

Station Depth Elevation

Earthquake Activity

City Distance Mag. Time & Date
Minimum magnitude displayed is 2.5.

Coastal Water Temperatures

Place Temperature

Stations

Nearby Weather Stations

Station Location Temp. Windchill Dew Point Humidity Wind Precip. Elev Updated Type